Time;durP1;ratioP1;P1;durP2;ratioP2;P2;SDS_P1;SDS_P2;PMS_P1;PMS_P2;Temp;Humidity;BMP_temperature;BMP_pressure;BME280_temperature;BME280_humidity;BME280_pressure;Samples;Min_cycle;Max_cycle;Signal;HPM_P1;HPM_P2
2022/04/05 00:01:36;;;;;;;18.77;5.00;;;;;;;8.90;100.00;101102.84;5062572;28;20128;-76
2022/04/05 00:04:02;;;;;;;20.60;3.78;;;;;;;8.95;100.00;101103.22;5040973;28;20119;-75
2022/04/05 00:06:28;;;;;;;13.73;3.53;;;;;;;8.93;100.00;101099.84;5069269;28;20035;-76
2022/04/05 00:08:53;;;;;;;22.85;4.18;;;;;;;8.92;100.00;101092.81;5066272;28;20056;-76
2022/04/05 00:11:19;;;;;;;18.77;4.03;;;;;;;8.86;100.00;101106.00;5047460;28;20474;-76
2022/04/05 00:13:45;;;;;;;11.93;4.75;;;;;;;8.82;100.00;101101.97;5067287;28;20474;-76
2022/04/05 00:16:10;;;;;;;9.90;2.97;;;;;;;8.72;100.00;101094.00;5062935;28;20367;-78
2022/04/05 00:18:38;;;;;;;12.35;3.20;;;;;;;8.64;100.00;101084.06;5050609;28;20040;-77
2022/04/05 00:21:05;;;;;;;20.60;3.75;;;;;;;8.58;100.00;101085.50;5034154;28;20054;-78
2022/04/05 00:23:30;;;;;;;21.48;4.25;;;;;;;8.53;100.00;101081.63;5042393;28;20093;-77
2022/04/05 00:25:56;;;;;;;17.83;3.75;;;;;;;8.54;100.00;101077.94;5068411;28;20032;-77
2022/04/05 00:28:21;;;;;;;18.20;2.97;;;;;;;8.52;100.00;101078.09;5046310;28;20401;-77
2022/04/05 00:30:47;;;;;;;15.73;3.53;;;;;;;8.38;100.00;101044.59;5043911;28;20055;-77
2022/04/05 00:33:13;;;;;;;18.58;3.92;;;;;;;8.50;100.00;101066.69;5058180;28;20028;-77
2022/04/05 00:35:38;;;;;;;17.08;4.82;;;;;;;8.60;100.00;101080.00;5053632;28;20382;-77
2022/04/05 00:38:04;;;;;;;19.52;4.28;;;;;;;8.66;100.00;101076.69;5047405;28;20028;-76
2022/04/05 00:40:30;;;;;;;20.50;4.03;;;;;;;8.66;100.00;101081.22;5069626;28;20021;-76
2022/04/05 00:42:56;;;;;;;17.35;4.13;;;;;;;8.60;100.00;101042.47;5052300;28;20029;-76
2022/04/05 00:45:21;;;;;;;19.33;3.55;;;;;;;8.69;100.00;101057.63;5067528;28;20056;-76
2022/04/05 00:47:49;;;;;;;14.93;6.78;;;;;;;8.74;100.00;101060.69;5033193;28;20109;-76
2022/04/05 00:50:19;;;;;;;27.38;5.18;;;;;;;8.78;100.00;101047.78;5068807;28;20095;-77
2022/04/05 00:52:45;;;;;;;14.88;3.80;;;;;;;8.72;100.00;101043.06;5051196;28;20059;-77
2022/04/05 00:55:11;;;;;;;7.82;2.45;;;;;;;8.68;100.00;101050.59;5035184;28;20473;-77
2022/04/05 00:57:37;;;;;;;11.65;3.53;;;;;;;8.59;100.00;101019.34;5035089;28;20070;-78
2022/04/05 01:00:07;;;;;;;17.40;3.92;;;;;;;8.44;100.00;100983.38;5067022;28;20036;-77
2022/04/05 01:02:37;;;;;;;16.35;4.22;;;;;;;8.78;100.00;101045.09;5062592;28;20039;-76
2022/04/05 01:05:05;;;;;;;20.33;5.50;;;;;;;8.73;100.00;101032.19;5049293;28;20048;-76
2022/04/05 01:07:33;;;;;;;14.80;3.50;;;;;;;8.74;100.00;101023.16;5065527;28;20036;-76
2022/04/05 01:09:58;;;;;;;11.15;3.60;;;;;;;8.79;100.00;101025.34;5064288;28;20079;-76
2022/04/05 01:12:24;;;;;;;20.80;3.90;;;;;;;8.79;100.00;101022.69;5049907;28;20464;-77
2022/04/05 01:14:51;;;;;;;18.92;4.63;;;;;;;8.78;100.00;101026.34;5067585;28;20143;-76
2022/04/05 01:17:16;;;;;;;18.00;3.90;;;;;;;8.78;100.00;101019.13;5068760;28;20174;-76
2022/04/05 01:19:42;;;;;;;15.05;3.72;;;;;;;8.76;100.00;101015.78;5047755;28;20123;-77
2022/04/05 01:22:08;;;;;;;9.15;2.95;;;;;;;8.79;100.00;101017.31;5060736;28;20036;-76
2022/04/05 01:24:34;;;;;;;16.88;3.65;;;;;;;8.53;100.00;100988.66;5044730;28;20032;-76
2022/04/05 01:27:05;;;;;;;21.55;3.95;;;;;;;8.77;100.00;101013.94;5068550;28;20024;-76
2022/04/05 01:29:31;;;;;;;17.75;3.85;;;;;;;8.67;100.00;100999.78;5058804;28;20028;-77
2022/04/05 01:31:58;;;;;;;10.68;2.45;;;;;;;8.75;100.00;101023.97;5075867;28;20032;-76
2022/04/05 01:34:25;;;;;;;20.75;3.65;;;;;;;8.69;100.00;101024.63;5045631;28;20111;-77
2022/04/05 01:36:53;;;;;;;13.88;3.03;;;;;;;8.68;100.00;101023.78;5059393;28;20033;-76
2022/04/05 01:39:21;;;;;;;13.93;2.72;;;;;;;8.57;100.00;101003.44;5041121;28;20040;-77
2022/04/05 01:41:54;;;;;;;16.30;3.60;;;;;;;8.70;100.00;101021.75;5064822;28;20612;-76
2022/04/05 01:44:23;;;;;;;11.75;3.17;;;;;;;8.71;100.00;101011.91;5061701;28;20060;-78
2022/04/05 01:46:49;;;;;;;11.68;2.97;;;;;;;8.67;100.00;101015.88;5065654;28;20346;-77
2022/04/05 01:49:14;;;;;;;11.27;2.97;;;;;;;8.74;100.00;101023.16;5064771;28;20037;-77
2022/04/05 01:51:41;;;;;;;14.68;3.53;;;;;;;8.58;100.00;100990.88;5047171;28;20036;-76
2022/04/05 01:54:09;;;;;;;13.85;3.42;;;;;;;8.70;100.00;101012.88;5064905;28;20040;-76
2022/04/05 01:56:47;;;;;;;17.83;3.72;;;;;;;8.74;100.00;101011.59;5047081;28;20124;-76
2022/04/05 01:59:19;;;;;;;10.10;3.38;;;;;;;8.68;100.00;101009.50;5066222;28;20481;-77
2022/04/05 02:01:45;;;;;;;10.45;2.95;;;;;;;8.47;100.00;100977.72;5062178;28;20059;-77
2022/04/05 02:04:11;;;;;;;16.42;3.35;;;;;;;8.59;100.00;100997.91;5033866;28;20089;-77
2022/04/05 02:06:38;;;;;;;21.25;3.38;;;;;;;8.50;100.00;100991.66;5060373;28;20037;-77
2022/04/05 02:09:04;;;;;;;17.00;3.72;;;;;;;8.45;100.00;100979.72;5063000;28;20091;-76
2022/04/05 02:11:30;;;;;;;15.27;3.45;;;;;;;8.45;100.00;100991.28;5075981;28;20385;-76
2022/04/05 02:13:55;;;;;;;14.18;4.00;;;;;;;8.45;100.00;100985.91;5062436;28;20037;-76
2022/04/05 02:16:21;;;;;;;8.98;2.33;;;;;;;8.38;100.00;100980.28;5064488;28;20477;-76
2022/04/05 02:18:47;;;;;;;17.13;3.15;;;;;;;8.34;100.00;100970.91;5059557;28;20438;-76
2022/04/05 02:21:12;;;;;;;8.63;2.42;;;;;;;8.42;100.00;100975.50;5063138;28;20485;-77
2022/04/05 02:23:38;;;;;;;9.18;3.83;;;;;;;8.34;100.00;100967.38;5032955;28;20044;-76
2022/04/05 02:26:04;;;;;;;16.33;2.95;;;;;;;8.43;100.00;100977.19;5065097;28;20036;-77
2022/04/05 02:28:29;;;;;;;42.72;4.03;;;;;;;8.39;100.00;100973.16;5060694;28;20036;-77
2022/04/05 02:30:55;;;;;;;20.67;3.75;;;;;;;8.37;100.00;100967.91;5057618;28;20485;-76
2022/04/05 02:33:20;;;;;;;11.63;2.53;;;;;;;8.41;100.00;100972.97;5045982;28;20085;-76
2022/04/05 02:35:48;;;;;;;11.05;2.28;;;;;;;8.41;100.00;100971.13;5047934;28;20410;-77
2022/04/05 02:38:14;;;;;;;13.48;3.50;;;;;;;8.41;100.00;100976.50;5061149;28;20021;-77
2022/04/05 02:40:40;;;;;;;13.45;2.63;;;;;;;8.30;100.00;100977.56;5066121;28;20473;-77
2022/04/05 02:43:09;;;;;;;6.32;1.65;;;;;;;8.33;100.00;100974.56;5043964;28;20105;-76
2022/04/05 02:45:35;;;;;;;7.30;1.55;;;;;;;8.38;100.00;100963.38;5060984;28;20042;-76
2022/04/05 02:48:00;;;;;;;11.75;2.47;;;;;;;8.40;100.00;100960.59;5064291;28;20032;-76
2022/04/05 02:50:26;;;;;;;12.45;2.55;;;;;;;8.22;100.00;100934.63;5042254;28;20047;-76
2022/04/05 02:52:52;;;;;;;10.25;2.20;;;;;;;8.26;100.00;100959.28;5033944;28;20036;-75
2022/04/05 02:55:18;;;;;;;6.72;1.90;;;;;;;8.25;100.00;100957.59;5060453;28;20029;-76
2022/04/05 02:57:45;;;;;;;12.43;1.80;;;;;;;8.23;100.00;100957.75;5062846;28;20028;-76
2022/04/05 03:00:13;;;;;;;9.13;1.80;;;;;;;8.21;100.00;100959.75;5062286;28;20032;-76
2022/04/05 03:02:39;;;;;;;5.05;1.20;;;;;;;7.86;100.00;100901.72;5042418;28;20047;-76
2022/04/05 03:05:06;;;;;;;4.90;1.77;;;;;;;8.22;100.00;100953.38;5055228;28;20057;-76
2022/04/05 03:07:38;;;;;;;5.97;1.80;;;;;;;8.20;100.00;100955.38;5041144;28;20059;-76
2022/04/05 03:10:06;;;;;;;8.18;1.70;;;;;;;8.26;100.00;100959.28;5043026;28;20040;-76
2022/04/05 03:12:34;;;;;;;10.18;1.73;;;;;;;8.27;100.00;100948.41;5062788;28;20036;-77
2022/04/05 03:15:00;;;;;;;3.30;1.35;;;;;;;8.25;100.00;100955.75;5052090;28;20086;-76
2022/04/05 03:17:25;;;;;;;9.02;1.60;;;;;;;8.30;100.00;100949.94;5040547;28;20075;-75
2022/04/05 03:19:51;;;;;;;6.15;1.63;;;;;;;8.28;100.00;100936.72;5063127;28;20039;-76
2022/04/05 03:22:17;;;;;;;6.30;1.88;;;;;;;8.31;100.00;100938.22;5069332;28;20123;-76
2022/04/05 03:24:43;;;;;;;6.97;1.90;;;;;;;8.28;100.00;100935.84;5040877;28;20479;-76
2022/04/05 03:27:09;;;;;;;6.93;1.52;;;;;;;8.27;100.00;100923.47;5040293;28;20036;-75
2022/04/05 03:29:34;;;;;;;7.50;1.40;;;;;;;8.27;100.00;100924.28;5039600;28;20041;-76
2022/04/05 03:32:01;;;;;;;4.63;1.33;;;;;;;8.31;100.00;100923.00;5054001;28;20090;-76
2022/04/05 03:34:27;;;;;;;5.20;1.33;;;;;;;8.24;100.00;100921.94;5067322;28;20082;-76
2022/04/05 03:36:54;;;;;;;5.07;1.38;;;;;;;8.37;100.00;100921.53;5056817;28;20099;-76
2022/04/05 03:39:19;;;;;;;6.85;1.42;;;;;;;8.29;100.00;100900.88;5040729;28;20086;-75
2022/04/05 03:41:45;;;;;;;4.03;1.52;;;;;;;8.24;100.00;100899.66;5056160;28;20036;-76
2022/04/05 03:44:11;;;;;;;3.53;1.20;;;;;;;8.24;100.00;100916.56;5041017;28;20032;-75
2022/04/05 03:46:36;;;;;;;7.07;1.42;;;;;;;8.23;100.00;100903.31;5042769;28;20042;-75
2022/04/05 03:49:02;;;;;;;7.13;2.08;;;;;;;8.22;100.00;100905.16;5056396;28;20025;-75
2022/04/05 03:51:29;;;;;;;3.38;1.30;;;;;;;8.25;100.00;100907.53;5038078;28;20452;-76
2022/04/05 03:53:55;;;;;;;6.65;1.33;;;;;;;8.22;100.00;100897.13;5036430;28;20052;-76
2022/04/05 03:56:22;;;;;;;2.80;1.38;;;;;;;8.27;100.00;100896.66;5051738;28;20386;-75
2022/04/05 03:58:48;;;;;;;5.50;2.00;;;;;;;8.19;100.00;100884.06;5039952;28;20093;-75
2022/04/05 04:01:14;;;;;;;9.73;1.40;;;;;;;8.16;100.00;100895.09;5052428;28;20033;-76
2022/04/05 04:03:40;;;;;;;6.25;1.98;;;;;;;8.17;100.00;100891.41;5073463;28;20414;-77
2022/04/05 04:06:05;;;;;;;8.30;1.67;;;;;;;8.15;100.00;100890.75;5076203;28;20031;-76
2022/04/05 04:08:31;;;;;;;6.53;2.42;;;;;;;8.11;100.00;100887.53;5040219;28;20043;-76
2022/04/05 04:10:57;;;;;;;5.35;1.50;;;;;;;8.09;100.00;100896.69;5063681;28;20048;-77
2022/04/05 04:13:23;;;;;;;2.90;1.00;;;;;;;7.96;100.00;100890.91;5038873;28;20040;-77
2022/04/05 04:15:48;;;;;;;6.13;1.80;;;;;;;7.83;100.00;100891.31;5038144;28;20100;-76
2022/04/05 04:18:14;;;;;;;8.25;1.70;;;;;;;7.66;100.00;100895.69;5051880;28;20040;-76
2022/04/05 04:20:42;;;;;;;7.28;1.50;;;;;;;7.53;100.00;100889.88;5038348;28;20029;-76
2022/04/05 04:23:11;;;;;;;5.78;1.40;;;;;;;7.57;100.00;100886.75;5085553;28;20640;-76
2022/04/05 04:25:39;;;;;;;9.10;1.70;;;;;;;7.45;100.00;100879.94;5074529;28;20554;-76
2022/04/05 04:28:06;;;;;;;4.93;1.25;;;;;;;7.18;100.00;100860.28;5049886;28;20032;-76
2022/04/05 04:30:36;;;;;;;4.35;1.38;;;;;;;7.30;100.00;100866.25;5061498;28;20048;-76
2022/04/05 04:33:02;;;;;;;5.63;1.88;;;;;;;7.26;100.00;100875.56;5065438;28;20468;-76
2022/04/05 04:35:29;;;;;;;8.05;1.60;;;;;;;7.16;100.00;100867.59;5049810;28;20040;-76
2022/04/05 04:37:54;;;;;;;6.32;2.95;;;;;;;7.13;100.00;100856.38;5037096;28;20143;-77
2022/04/05 04:40:20;;;;;;;8.57;1.50;;;;;;;7.16;100.00;100864.94;5049509;28;20474;-76
2022/04/05 04:42:46;;;;;;;7.35;1.60;;;;;;;7.15;100.00;100852.56;5053058;28;20028;-76
2022/04/05 04:45:12;;;;;;;4.60;2.17;;;;;;;7.09;100.00;100857.66;5036992;28;20028;-75
2022/04/05 04:47:40;;;;;;;7.03;1.40;;;;;;;7.07;100.00;100860.50;5078897;28;20029;-76
2022/04/05 04:50:07;;;;;;;4.45;1.17;;;;;;;7.05;100.00;100852.63;5068048;28;20059;-76
2022/04/05 04:52:33;;;;;;;2.08;1.48;;;;;;;7.01;100.00;100845.03;5047345;28;20128;-76
2022/04/05 04:54:59;;;;;;;4.70;1.10;;;;;;;6.99;100.00;100849.72;5033637;28;20037;-75
2022/04/05 04:57:25;;;;;;;3.75;1.27;;;;;;;6.93;100.00;100845.81;5063529;28;20033;-76
2022/04/05 04:59:52;;;;;;;5.38;1.13;;;;;;;6.86;100.00;100836.72;5056755;28;20063;-77
2022/04/05 05:02:18;;;;;;;3.42;1.20;;;;;;;6.79;100.00;100830.28;5053155;28;20090;-76
2022/04/05 05:04:44;;;;;;;2.65;1.17;;;;;;;6.74;100.00;100837.91;5064331;28;20029;-76
2022/04/05 05:07:09;;;;;;;5.28;1.10;;;;;;;6.64;100.00;100843.28;5054508;28;20040;-75
2022/04/05 05:09:35;;;;;;;3.00;0.95;;;;;;;6.62;100.00;100844.44;5046368;28;20040;-75
2022/04/05 05:12:01;;;;;;;4.03;0.80;;;;;;;6.53;100.00;100840.81;5061206;28;20062;-76
2022/04/05 05:14:27;;;;;;;2.58;1.08;;;;;;;6.51;100.00;100832.97;5065164;28;20525;-76
2022/04/05 05:16:56;;;;;;;1.30;0.77;;;;;;;6.55;100.00;100825.47;5044633;28;20057;-76
2022/04/05 05:19:22;;;;;;;5.10;1.10;;;;;;;6.54;100.00;100831.81;5033201;28;20027;-76
2022/04/05 05:21:48;;;;;;;5.63;1.08;;;;;;;6.53;100.00;100827.44;5035544;28;20036;-76
2022/04/05 05:24:13;;;;;;;4.15;1.33;;;;;;;6.64;100.00;100821.06;5068902;28;20020;-76
2022/04/05 05:26:39;;;;;;;5.35;1.48;;;;;;;6.68;100.00;100812.63;5062357;28;20085;-76
2022/04/05 05:29:05;;;;;;;1.23;0.85;;;;;;;6.88;100.00;100825.84;5062543;28;20033;-75
2022/04/05 05:31:31;;;;;;;7.35;1.65;;;;;;;7.01;100.00;100812.97;5044629;28;20094;-77
2022/04/05 05:33:56;;;;;;;3.67;1.95;;;;;;;6.98;100.00;100802.56;5066689;28;20107;-76
2022/04/05 05:36:22;;;;;;;3.33;1.30;;;;;;;7.12;100.00;100809.22;5049279;28;20041;-76
2022/04/05 05:38:47;;;;;;;7.63;1.30;;;;;;;7.21;100.00;100816.34;5066017;28;20032;-75
2022/04/05 05:41:13;;;;;;;6.82;1.67;;;;;;;7.29;100.00;100810.25;5048517;28;20066;-76
2022/04/05 05:43:40;;;;;;;3.55;1.20;;;;;;;7.26;100.00;100806.03;5035822;28;20474;-76
2022/04/05 05:46:06;;;;;;;7.93;2.47;;;;;;;7.29;100.00;100811.06;5063350;28;20036;-75
2022/04/05 05:48:33;;;;;;;6.70;1.90;;;;;;;7.30;100.00;100804.72;5032893;28;20819;-76
2022/04/05 05:50:59;;;;;;;7.57;1.55;;;;;;;7.33;100.00;100809.78;5064433;28;20175;-76
2022/04/05 05:53:25;;;;;;;12.65;2.05;;;;;;;7.34;100.00;100787.38;5050943;28;20234;-76
2022/04/05 05:55:51;;;;;;;4.50;1.90;;;;;;;7.32;100.00;100788.53;5045943;28;20496;-76
2022/04/05 05:58:17;;;;;;;7.35;2.42;;;;;;;7.30;100.00;100790.50;5038045;28;20101;-76
2022/04/05 06:00:42;;;;;;;5.75;1.90;;;;;;;7.13;100.00;100768.97;5047958;28;20440;-76
2022/04/05 06:03:10;;;;;;;4.22;1.23;;;;;;;7.28;100.00;100788.00;5048671;28;20116;-76
2022/04/05 06:05:36;;;;;;;18.55;2.30;;;;;;;7.27;100.00;100795.16;5035539;28;20542;-77
2022/04/05 06:08:04;;;;;;;6.22;1.95;;;;;;;7.26;100.00;100795.34;5032074;28;20040;-75
2022/04/05 06:10:30;;;;;;;5.85;1.30;;;;;;;7.32;100.00;100788.53;5073496;28;20032;-75
2022/04/05 06:12:57;;;;;;;12.48;1.83;;;;;;;7.31;100.00;100800.25;5053460;28;20043;-76
2022/04/05 06:15:25;;;;;;;7.95;1.85;;;;;;;7.26;100.00;100782.81;5062308;28;20024;-76
2022/04/05 06:17:52;;;;;;;4.13;1.67;;;;;;;7.29;100.00;100778.16;5064778;28;20043;-76
2022/04/05 06:20:28;;;;;;;5.15;1.60;;;;;;;7.24;100.00;100783.94;5035115;28;20536;-77
2022/04/05 06:22:57;;;;;;;6.00;1.60;;;;;;;7.21;100.00;100776.25;5065194;28;20044;-76
2022/04/05 06:25:28;;;;;;;7.30;1.40;;;;;;;7.31;100.00;100789.53;5036139;28;20394;-76
2022/04/05 06:27:56;;;;;;;11.32;2.78;;;;;;;7.22;100.00;100773.41;5058863;28;20048;-76
2022/04/05 06:30:22;;;;;;;7.93;1.83;;;;;;;7.31;100.00;100790.38;5063922;28;20051;-76
2022/04/05 06:32:47;;;;;;;11.73;2.22;;;;;;;7.26;100.00;100766.75;5064044;28;20478;-76
2022/04/05 06:35:14;;;;;;;13.38;2.15;;;;;;;7.37;100.00;100775.53;5045214;28;20043;-76
2022/04/05 06:37:43;;;;;;;9.60;2.40;;;;;;;7.32;100.00;100767.13;5034790;28;20531;-76
2022/04/05 06:40:10;;;;;;;8.88;1.77;;;;;;;7.38;100.00;100786.09;5064557;28;20024;-75
2022/04/05 06:42:41;;;;;;;10.35;3.17;;;;;;;7.39;100.00;100778.91;5060603;28;20367;-77
2022/04/05 06:45:12;;;;;;;10.05;1.90;;;;;;;7.36;100.00;100769.34;5069526;28;20036;-76
2022/04/05 06:47:38;;;;;;;7.35;2.17;;;;;;;7.37;100.00;100778.22;5032174;28;20045;-76
2022/04/05 06:50:08;;;;;;;6.68;2.35;;;;;;;7.29;100.00;100752.25;5056047;28;20040;-76
2022/04/05 06:52:38;;;;;;;11.15;2.42;;;;;;;7.35;100.00;100756.13;5062724;28;20060;-77
2022/04/05 06:55:06;;;;;;;10.25;2.35;;;;;;;7.43;100.00;100765.03;5058878;28;20032;-76
2022/04/05 06:57:31;;;;;;;5.05;2.20;;;;;;;7.47;100.00;100766.44;5068175;28;20481;-75
2022/04/05 06:59:57;;;;;;;14.55;2.13;;;;;;;7.52;100.00;100763.28;5033005;28;20045;-76
2022/04/05 07:02:23;;;;;;;6.70;1.52;;;;;;;7.45;100.00;100740.81;5063857;28;20070;-77
2022/04/05 07:04:49;;;;;;;5.65;1.92;;;;;;;7.54;100.00;100749.75;5063639;28;20060;-77
2022/04/05 07:07:14;;;;;;;5.50;1.90;;;;;;;7.64;100.00;100755.84;5050927;28;20032;-77
2022/04/05 07:09:40;;;;;;;8.32;1.95;;;;;;;7.62;100.00;100752.47;5064869;28;20024;-77
2022/04/05 07:12:09;;;;;;;5.70;2.60;;;;;;;7.71;100.00;100754.22;5028395;28;20087;-77
2022/04/05 07:14:35;;;;;;;9.98;2.35;;;;;;;7.76;100.00;100756.44;5062418;28;20283;-76
2022/04/05 07:17:01;;;;;;;8.70;1.90;;;;;;;7.81;100.00;100754.13;5034483;28;20036;-77
2022/04/05 07:19:27;;;;;;;10.38;1.80;;;;;;;7.83;100.00;100758.31;5047718;28;20032;-76
2022/04/05 07:21:53;;;;;;;2.72;1.10;;;;;;;7.91;100.00;100770.91;5044755;28;20547;-76
2022/04/05 07:24:19;;;;;;;4.93;1.38;;;;;;;7.81;100.00;100754.97;5060498;28;20056;-76
2022/04/05 07:26:45;;;;;;;6.68;2.28;;;;;;;7.82;100.00;100751.28;5033129;28;20040;-76
2022/04/05 07:29:11;;;;;;;8.95;2.20;;;;;;;7.87;100.00;100753.50;5036903;28;20449;-76
2022/04/05 07:31:37;;;;;;;5.60;1.60;;;;;;;7.88;100.00;100744.44;5044452;28;20090;-76
2022/04/05 07:34:03;;;;;;;4.95;1.92;;;;;;;8.12;100.00;100738.38;5058604;28;20028;-76
2022/04/05 07:36:30;;;;;;;8.40;2.05;;;;;;;8.28;100.00;100743.81;5062453;28;20237;-75
2022/04/05 07:38:56;;;;;;;5.35;2.08;;;;;;;8.46;100.00;100740.22;5039962;28;20055;-76
2022/04/05 07:41:22;;;;;;;14.65;2.45;;;;;;;8.66;100.00;100740.78;5051776;28;20441;-76
2022/04/05 07:43:47;;;;;;;8.23;1.90;;;;;;;8.79;100.00;100725.91;5056448;28;20147;-75
2022/04/05 07:46:13;;;;;;;6.72;1.90;;;;;;;8.94;100.00;100720.72;5033963;28;20036;-75
2022/04/05 07:48:39;;;;;;;6.82;2.10;;;;;;;9.09;100.00;100728.94;5030881;28;20028;-75
2022/04/05 07:51:05;;;;;;;7.65;1.95;;;;;;;9.26;100.00;100727.09;5038729;28;20431;-76
2022/04/05 07:53:31;;;;;;;8.63;1.92;;;;;;;9.45;100.00;100725.94;5044351;28;20048;-75
2022/04/05 07:55:57;;;;;;;3.30;2.10;;;;;;;9.46;100.00;100715.00;5051943;28;20036;-76
2022/04/05 07:58:23;;;;;;;9.88;2.10;;;;;;;9.48;100.00;100709.50;5029698;28;20032;-75
2022/04/05 08:00:49;;;;;;;5.85;1.80;;;;;;;9.59;100.00;100716.34;5062924;28;20523;-75
2022/04/05 08:03:15;;;;;;;6.78;1.65;;;;;;;9.71;100.00;100731.06;5066063;28;20024;-76
2022/04/05 08:05:41;;;;;;;4.72;1.80;;;;;;;9.79;100.00;100724.84;5034223;28;20035;-76
2022/04/05 08:08:08;;;;;;;6.75;1.98;;;;;;;9.85;100.00;100729.56;5051480;28;20048;-77
2022/04/05 08:10:34;;;;;;;7.05;1.73;;;;;;;9.89;100.00;100730.88;5067146;28;20036;-76
2022/04/05 08:13:00;;;;;;;4.45;2.00;;;;;;;9.74;100.00;100706.59;5067661;28;20028;-76
2022/04/05 08:15:26;;;;;;;3.20;1.50;;;;;;;9.86;100.00;100717.78;5053428;28;20071;-76
2022/04/05 08:17:52;;;;;;;6.28;1.42;;;;;;;9.88;100.00;100705.88;5053920;28;20035;-76
2022/04/05 08:20:19;;;;;;;1.70;1.15;;;;;;;9.95;100.00;100710.53;5067361;28;20499;-76
2022/04/05 08:22:46;;;;;;;4.00;1.27;;;;;;;10.19;100.00;100718.53;5059524;28;20414;-76
2022/04/05 08:25:16;;;;;;;7.25;1.77;;;;;;;10.51;100.00;100709.50;5056432;28;20024;-76
2022/04/05 08:27:43;;;;;;;5.68;1.40;;;;;;;10.76;100.00;100696.72;5056948;28;20028;-76
2022/04/05 08:30:10;;;;;;;3.88;1.13;;;;;;;11.76;98.53;100694.84;5052512;28;20044;-78
2022/04/05 08:32:37;;;;;;;6.82;1.25;;;;;;;11.91;97.69;100700.25;5061388;28;20493;-76
2022/04/05 08:35:04;;;;;;;3.58;1.20;;;;;;;11.83;97.01;100690.41;5048345;28;20043;-77
2022/04/05 08:37:30;;;;;;;2.90;1.67;;;;;;;11.86;97.93;100690.06;5058817;28;20035;-76
2022/04/05 08:39:56;;;;;;;6.97;1.35;;;;;;;11.91;98.01;100692.19;5053233;28;20032;-77
2022/04/05 08:42:23;;;;;;;3.80;1.30;;;;;;;11.94;97.77;100694.53;5038114;28;20075;-81
2022/04/05 08:44:49;;;;;;;1.95;1.58;;;;;;;11.89;98.07;100689.69;5051602;28;20029;-78
2022/04/05 08:47:25;;;;;;;4.22;1.65;;;;;;;11.81;95.81;100681.66;5045969;28;20035;-78
2022/04/05 08:49:53;;;;;;;8.02;1.50;;;;;;;11.85;95.88;100689.22;5047998;28;20037;-79
2022/04/05 08:52:18;;;;;;;5.35;1.70;;;;;;;11.87;95.96;100686.34;5070889;28;20036;-78
2022/04/05 08:54:44;;;;;;;6.65;1.60;;;;;;;11.87;97.92;100687.16;5038799;28;20024;-79
2022/04/05 08:57:10;;;;;;;7.25;1.48;;;;;;;11.98;97.72;100691.25;5067775;28;20039;-78
2022/04/05 08:59:35;;;;;;;5.57;1.30;;;;;;;12.10;95.79;100678.16;5064342;28;20518;-78
2022/04/05 09:02:01;;;;;;;5.35;1.40;;;;;;;12.12;95.74;100681.50;5065186;28;20037;-78
2022/04/05 09:04:32;;;;;;;4.40;1.40;;;;;;;11.90;95.59;100683.28;5038474;28;20040;-77
2022/04/05 09:07:17;;;;;;;5.50;1.70;;;;;;;11.63;97.33;100680.16;5071416;28;20406;-77
2022/04/05 09:09:43;;;;;;;3.28;1.33;;;;;;;11.64;98.29;100670.22;5070129;28;20107;-78
2022/04/05 09:12:17;;;;;;;7.78;1.50;;;;;;;11.83;98.30;100685.84;5071432;28;20120;-79
2022/04/05 09:14:42;;;;;;;3.38;1.27;;;;;;;12.15;95.45;100683.81;5066679;28;20021;-80
2022/04/05 09:17:10;;;;;;;3.15;1.55;;;;;;;12.49;94.01;100685.03;5070459;28;20093;-79
2022/04/05 09:19:45;;;;;;;4.95;1.70;;;;;;;12.59;91.54;100692.81;5071761;28;20024;-79
2022/04/05 09:22:12;;;;;;;3.65;1.30;;;;;;;12.48;92.45;100688.78;5071117;28;20090;-80
2022/04/05 09:24:40;;;;;;;6.82;1.40;;;;;;;12.51;93.32;100666.81;5067666;28;20036;-79
2022/04/05 09:27:08;;;;;;;6.82;1.52;;;;;;;12.66;91.91;100691.03;5068288;28;20036;-77
2022/04/05 09:29:41;;;;;;;6.15;1.42;;;;;;;12.83;90.36;100681.66;5053812;28;20488;-77
2022/04/05 09:32:08;;;;;;;3.08;1.42;;;;;;;13.31;89.32;100692.75;5065874;28;20051;-78
2022/04/05 09:34:47;;;;;;;3.67;1.55;;;;;;;14.50;84.40;100681.75;5046864;28;20026;-77
2022/04/05 09:37:13;;;;;;;4.00;1.00;;;;;;;14.66;82.24;100682.44;5063450;28;20024;-78
2022/04/05 09:39:38;;;;;;;4.40;1.05;;;;;;;14.69;79.76;100671.22;5070886;28;20367;-78
2022/04/05 09:42:08;;;;;;;2.60;1.38;;;;;;;14.98;78.48;100664.59;5039022;28;20037;-78
2022/04/05 09:44:36;;;;;;;4.78;1.77;;;;;;;15.15;76.65;100679.38;5046392;28;20111;-78
2022/04/05 09:47:07;;;;;;;2.17;1.10;;;;;;;15.08;70.75;100677.72;5070923;28;20477;-76
2022/04/05 09:49:36;;;;;;;6.28;1.40;;;;;;;15.49;69.75;100663.13;5060139;28;20040;-78
2022/04/05 09:52:03;;;;;;;7.22;1.38;;;;;;;16.53;62.87;100655.91;5048454;28;20064;-78
2022/04/05 09:54:31;;;;;;;5.47;1.77;;;;;;;16.34;60.53;100658.50;5061613;28;20714;-77
2022/04/05 09:57:00;;;;;;;2.95;1.42;;;;;;;15.95;60.55;100664.94;5067291;28;20450;-77
2022/04/05 09:59:36;;;;;;;2.83;1.17;;;;;;;15.28;63.37;100650.66;5077055;28;20469;-77
2022/04/05 10:02:14;;;;;;;2.35;1.08;;;;;;;14.97;63.32;100656.69;5059505;28;20056;-77
2022/04/05 10:04:58;;;;;;;2.40;1.10;;;;;;;14.77;64.72;100662.09;5050411;28;20029;-79
2022/04/05 10:07:26;;;;;;;9.80;1.63;;;;;;;14.55;66.23;100654.09;5063003;28;20024;-77
2022/04/05 10:09:51;;;;;;;4.70;1.33;;;;;;;14.38;67.26;100659.03;5035603;28;20036;-79
2022/04/05 10:12:17;;;;;;;5.70;1.52;;;;;;;14.29;65.70;100650.28;5047650;28;20085;-77
2022/04/05 10:14:43;;;;;;;5.80;1.20;;;;;;;14.29;66.56;100638.63;5035432;28;20097;-77
2022/04/05 10:17:10;;;;;;;6.28;1.67;;;;;;;14.49;67.21;100642.19;5054697;28;20053;-77
2022/04/05 10:19:36;;;;;;;5.80;1.73;;;;;;;14.63;66.52;100628.72;5052801;28;20039;-77
2022/04/05 10:22:01;;;;;;;5.07;1.52;;;;;;;14.81;65.83;100631.66;5035341;28;20028;-77
2022/04/05 10:24:28;;;;;;;5.50;1.40;;;;;;;14.80;64.91;100630.00;5064437;28;20503;-77
2022/04/05 10:26:53;;;;;;;4.00;1.20;;;;;;;14.43;64.20;100629.50;5052722;28;20077;-76
2022/04/05 10:29:20;;;;;;;4.57;1.25;;;;;;;14.36;65.14;100614.28;5052474;28;20123;-77
2022/04/05 10:31:58;;;;;;;3.53;1.38;;;;;;;14.41;65.48;100619.91;5060992;28;20071;-78
2022/04/05 10:34:44;;;;;;;4.15;1.35;;;;;;;14.39;66.07;100609.28;5058274;28;20040;-78
2022/04/05 10:37:16;;;;;;;6.03;1.33;;;;;;;14.61;64.53;100615.41;5084854;28;20047;-77
2022/04/05 10:40:10;;;;;;;4.38;1.58;;;;;;;14.80;63.67;100607.53;5041787;28;20143;-78
2022/04/05 10:42:51;;;;;;;4.80;1.40;;;;;;;14.42;64.81;100600.78;5052389;28;20056;-79
2022/04/05 10:45:19;;;;;;;5.10;1.27;;;;;;;13.87;66.86;100601.84;5045374;28;20039;-79
2022/04/05 10:48:13;;;;;;;4.28;1.17;;;;;;;14.31;67.21;100593.25;5059324;28;20036;-79
2022/04/05 10:50:40;;;;;;;6.63;1.55;;;;;;;15.64;62.23;100605.97;5063305;28;20040;-79
2022/04/05 10:53:20;;;;;;;5.50;1.27;;;;;;;16.78;57.48;100590.84;5067224;28;20016;-79
2022/04/05 10:56:04;;;;;;;4.65;1.83;;;;;;;19.32;49.75;100585.50;5069746;28;20458;-79
2022/04/05 10:58:35;;;;;;;3.85;1.20;;;;;;;18.82;48.97;100588.66;5065967;28;20466;-80
2022/04/05 11:01:23;;;;;;;4.60;1.33;;;;;;;17.36;53.87;100574.22;5034528;28;20035;-80
2022/04/05 11:04:09;;;;;;;3.03;1.05;;;;;;;16.06;57.73;100582.88;5068009;28;20036;-80
2022/04/05 11:07:03;;;;;;;2.88;1.15;;;;;;;15.27;61.28;100582.09;5052996;28;20534;-81
2022/04/05 11:09:34;;;;;;;5.03;1.50;;;;;;;15.35;63.49;100570.22;5061362;28;20559;-84
2022/04/05 11:12:10;;;;;;;2.53;1.20;;;;;;;16.32;58.73;100567.53;5030776;28;20509;-82
2022/04/05 11:14:43;;;;;;;3.70;1.10;;;;;;;16.05;57.77;100571.22;5052229;28;20063;-82
2022/04/05 11:17:10;;;;;;;6.82;1.55;;;;;;;15.64;58.90;100558.03;5035410;28;20086;-82
2022/04/05 11:19:38;;;;;;;9.75;1.27;;;;;;;15.17;61.05;100557.31;5046325;28;20063;-82
2022/04/05 11:22:24;;;;;;;7.40;1.15;;;;;;;14.95;61.54;100552.13;5049764;28;20833;-83
2022/04/05 11:25:11;;;;;;;6.25;1.77;;;;;;;15.72;57.38;100557.00;5054641;28;20493;-83